sensor_id;sensor_type;location;lat;lon;timestamp;P1;durP1;ratioP1;P2;durP2;ratioP2
9445;SDS011;4761;49.490;10.908;2023-07-30T00:00:21;2.20;;;1.30;;
9445;SDS011;4761;49.490;10.908;2023-07-30T00:02:47;1.20;;;1.20;;
9445;SDS011;4761;49.490;10.908;2023-07-30T00:05:12;1.25;;;1.15;;
9445;SDS011;4761;49.490;10.908;2023-07-30T00:07:38;1.40;;;1.30;;
9445;SDS011;4761;49.490;10.908;2023-07-30T00:10:03;1.25;;;1.15;;
9445;SDS011;4761;49.490;10.908;2023-07-30T00:12:29;1.25;;;1.17;;
9445;SDS011;4761;49.490;10.908;2023-07-30T00:14:55;1.30;;;1.20;;
9445;SDS011;4761;49.490;10.908;2023-07-30T00:17:20;1.40;;;1.30;;
9445;SDS011;4761;49.490;10.908;2023-07-30T00:19:46;1.38;;;1.27;;
9445;SDS011;4761;49.490;10.908;2023-07-30T00:22:11;1.35;;;1.25;;
9445;SDS011;4761;49.490;10.908;2023-07-30T00:24:37;1.38;;;1.27;;
9445;SDS011;4761;49.490;10.908;2023-07-30T00:27:02;1.60;;;1.20;;
9445;SDS011;4761;49.490;10.908;2023-07-30T00:29:28;1.35;;;1.25;;
9445;SDS011;4761;49.490;10.908;2023-07-30T00:31:54;1.33;;;1.23;;
9445;SDS011;4761;49.490;10.908;2023-07-30T00:34:19;1.40;;;1.30;;
9445;SDS011;4761;49.490;10.908;2023-07-30T00:36:45;1.30;;;1.20;;
9445;SDS011;4761;49.490;10.908;2023-07-30T00:39:10;1.48;;;1.38;;
9445;SDS011;4761;49.490;10.908;2023-07-30T00:41:36;1.30;;;1.20;;
9445;SDS011;4761;49.490;10.908;2023-07-30T00:44:01;1.42;;;1.33;;
9445;SDS011;4761;49.490;10.908;2023-07-30T00:46:28;1.40;;;1.30;;
9445;SDS011;4761;49.490;10.908;2023-07-30T00:48:53;1.33;;;1.23;;
9445;SDS011;4761;49.490;10.908;2023-07-30T00:51:19;1.40;;;1.30;;
9445;SDS011;4761;49.490;10.908;2023-07-30T00:53:45;1.30;;;1.20;;
9445;SDS011;4761;49.490;10.908;2023-07-30T00:56:11;1.55;;;1.13;;
9445;SDS011;4761;49.490;10.908;2023-07-30T00:58:36;1.35;;;1.25;;
9445;SDS011;4761;49.490;10.908;2023-07-30T01:01:02;1.30;;;1.20;;
9445;SDS011;4761;49.490;10.908;2023-07-30T01:03:28;2.13;;;1.23;;
9445;SDS011;4761;49.490;10.908;2023-07-30T01:05:53;5.18;;;1.95;;
9445;SDS011;4761;49.490;10.908;2023-07-30T01:08:19;1.25;;;1.17;;
9445;SDS011;4761;49.490;10.908;2023-07-30T01:10:45;1.40;;;1.30;;
9445;SDS011;4761;49.490;10.908;2023-07-30T01:13:11;1.40;;;1.30;;
9445;SDS011;4761;49.490;10.908;2023-07-30T01:15:39;1.50;;;1.33;;
9445;SDS011;4761;49.490;10.908;2023-07-30T01:18:05;1.75;;;1.65;;
9445;SDS011;4761;49.490;10.908;2023-07-30T01:20:31;1.65;;;1.52;;
9445;SDS011;4761;49.490;10.908;2023-07-30T01:22:59;1.40;;;1.30;;
9445;SDS011;4761;49.490;10.908;2023-07-30T01:25:27;1.48;;;1.38;;
9445;SDS011;4761;49.490;10.908;2023-07-30T01:27:55;2.03;;;1.52;;
9445;SDS011;4761;49.490;10.908;2023-07-30T01:30:25;2.85;;;1.50;;
9445;SDS011;4761;49.490;10.908;2023-07-30T01:32:53;1.77;;;1.60;;
9445;SDS011;4761;49.490;10.908;2023-07-30T01:35:20;1.33;;;1.23;;
9445;SDS011;4761;49.490;10.908;2023-07-30T01:37:47;1.77;;;1.50;;
9445;SDS011;4761;49.490;10.908;2023-07-30T01:40:14;1.90;;;1.10;;
9445;SDS011;4761;49.490;10.908;2023-07-30T01:42:39;1.30;;;1.20;;
9445;SDS011;4761;49.490;10.908;2023-07-30T01:45:05;1.60;;;1.50;;
9445;SDS011;4761;49.490;10.908;2023-07-30T01:47:31;1.58;;;1.40;;
9445;SDS011;4761;49.490;10.908;2023-07-30T01:49:57;1.65;;;1.55;;
9445;SDS011;4761;49.490;10.908;2023-07-30T01:52:22;1.65;;;1.55;;
9445;SDS011;4761;49.490;10.908;2023-07-30T01:54:48;1.67;;;1.52;;
9445;SDS011;4761;49.490;10.908;2023-07-30T01:57:14;1.50;;;1.40;;
9445;SDS011;4761;49.490;10.908;2023-07-30T01:59:39;1.67;;;1.55;;
9445;SDS011;4761;49.490;10.908;2023-07-30T02:02:05;1.30;;;1.20;;
9445;SDS011;4761;49.490;10.908;2023-07-30T02:04:32;1.60;;;1.27;;
9445;SDS011;4761;49.490;10.908;2023-07-30T02:06:57;1.65;;;1.40;;
9445;SDS011;4761;49.490;10.908;2023-07-30T02:09:23;1.65;;;1.40;;
9445;SDS011;4761;49.490;10.908;2023-07-30T02:11:48;1.48;;;1.38;;
9445;SDS011;4761;49.490;10.908;2023-07-30T02:14:14;1.50;;;1.40;;
9445;SDS011;4761;49.490;10.908;2023-07-30T02:16:40;1.63;;;1.20;;
9445;SDS011;4761;49.490;10.908;2023-07-30T02:19:05;2.85;;;1.60;;
9445;SDS011;4761;49.490;10.908;2023-07-30T02:21:31;1.40;;;1.30;;
9445;SDS011;4761;49.490;10.908;2023-07-30T02:23:58;1.50;;;1.40;;
9445;SDS011;4761;49.490;10.908;2023-07-30T02:26:24;1.50;;;1.40;;
9445;SDS011;4761;49.490;10.908;2023-07-30T02:28:49;1.42;;;1.30;;
9445;SDS011;4761;49.490;10.908;2023-07-30T02:31:15;1.58;;;1.48;;
9445;SDS011;4761;49.490;10.908;2023-07-30T02:33:41;1.55;;;1.45;;
9445;SDS011;4761;49.490;10.908;2023-07-30T02:36:06;1.38;;;1.27;;
9445;SDS011;4761;49.490;10.908;2023-07-30T02:38:32;1.50;;;1.35;;
9445;SDS011;4761;49.490;10.908;2023-07-30T02:40:57;1.98;;;1.40;;
9445;SDS011;4761;49.490;10.908;2023-07-30T02:43:23;1.50;;;1.40;;
9445;SDS011;4761;49.490;10.908;2023-07-30T02:45:48;1.60;;;1.50;;
9445;SDS011;4761;49.490;10.908;2023-07-30T02:48:14;2.10;;;1.40;;
9445;SDS011;4761;49.490;10.908;2023-07-30T02:50:40;1.60;;;1.50;;
9445;SDS011;4761;49.490;10.908;2023-07-30T02:53:05;1.88;;;1.60;;
9445;SDS011;4761;49.490;10.908;2023-07-30T02:55:31;1.40;;;1.30;;
9445;SDS011;4761;49.490;10.908;2023-07-30T02:57:56;1.60;;;1.50;;
9445;SDS011;4761;49.490;10.908;2023-07-30T03:00:22;1.40;;;1.30;;
9445;SDS011;4761;49.490;10.908;2023-07-30T03:02:47;1.70;;;1.60;;
9445;SDS011;4761;49.490;10.908;2023-07-30T03:05:13;1.75;;;1.50;;
9445;SDS011;4761;49.490;10.908;2023-07-30T03:07:38;1.70;;;1.60;;
9445;SDS011;4761;49.490;10.908;2023-07-30T03:10:04;1.98;;;1.58;;
9445;SDS011;4761;49.490;10.908;2023-07-30T03:12:30;1.92;;;1.70;;
9445;SDS011;4761;49.490;10.908;2023-07-30T03:14:55;1.50;;;1.40;;
9445;SDS011;4761;49.490;10.908;2023-07-30T03:17:21;1.75;;;1.60;;
9445;SDS011;4761;49.490;10.908;2023-07-30T03:19:46;1.52;;;1.42;;
9445;SDS011;4761;49.490;10.908;2023-07-30T03:22:12;1.58;;;1.30;;
9445;SDS011;4761;49.490;10.908;2023-07-30T03:24:37;1.40;;;1.30;;
9445;SDS011;4761;49.490;10.908;2023-07-30T03:27:03;1.70;;;1.60;;
9445;SDS011;4761;49.490;10.908;2023-07-30T03:29:29;1.60;;;1.50;;
9445;SDS011;4761;49.490;10.908;2023-07-30T03:31:54;1.50;;;1.40;;
9445;SDS011;4761;49.490;10.908;2023-07-30T03:34:20;1.40;;;1.30;;
9445;SDS011;4761;49.490;10.908;2023-07-30T03:36:45;1.58;;;1.48;;
9445;SDS011;4761;49.490;10.908;2023-07-30T03:39:11;1.88;;;1.75;;
9445;SDS011;4761;49.490;10.908;2023-07-30T03:41:37;1.65;;;1.55;;
9445;SDS011;4761;49.490;10.908;2023-07-30T03:44:02;2.05;;;1.85;;
9445;SDS011;4761;49.490;10.908;2023-07-30T03:46:28;1.50;;;1.40;;
9445;SDS011;4761;49.490;10.908;2023-07-30T03:48:53;1.55;;;1.42;;
9445;SDS011;4761;49.490;10.908;2023-07-30T03:51:19;1.42;;;1.33;;
9445;SDS011;4761;49.490;10.908;2023-07-30T03:53:44;2.05;;;1.42;;
9445;SDS011;4761;49.490;10.908;2023-07-30T03:56:10;1.58;;;1.48;;
9445;SDS011;4761;49.490;10.908;2023-07-30T03:58:35;1.67;;;1.50;;
9445;SDS011;4761;49.490;10.908;2023-07-30T04:01:01;1.67;;;1.58;;
9445;SDS011;4761;49.490;10.908;2023-07-30T04:03:27;1.40;;;1.30;;
9445;SDS011;4761;49.490;10.908;2023-07-30T04:05:52;1.55;;;1.45;;
9445;SDS011;4761;49.490;10.908;2023-07-30T04:08:18;1.60;;;1.50;;
9445;SDS011;4761;49.490;10.908;2023-07-30T04:10:43;1.50;;;1.40;;
9445;SDS011;4761;49.490;10.908;2023-07-30T04:13:09;1.50;;;1.40;;
9445;SDS011;4761;49.490;10.908;2023-07-30T04:15:34;1.75;;;1.65;;
9445;SDS011;4761;49.490;10.908;2023-07-30T04:18:00;1.63;;;1.52;;
9445;SDS011;4761;49.490;10.908;2023-07-30T04:20:25;1.85;;;1.65;;
9445;SDS011;4761;49.490;10.908;2023-07-30T04:22:51;1.60;;;1.50;;
9445;SDS011;4761;49.490;10.908;2023-07-30T04:25:17;1.30;;;1.20;;
9445;SDS011;4761;49.490;10.908;2023-07-30T04:27:43;1.40;;;1.30;;
9445;SDS011;4761;49.490;10.908;2023-07-30T04:30:08;1.40;;;1.30;;
9445;SDS011;4761;49.490;10.908;2023-07-30T04:32:34;1.60;;;1.50;;
9445;SDS011;4761;49.490;10.908;2023-07-30T04:35:00;1.73;;;1.63;;
9445;SDS011;4761;49.490;10.908;2023-07-30T04:37:27;1.42;;;1.33;;
9445;SDS011;4761;49.490;10.908;2023-07-30T04:39:53;1.92;;;1.65;;
9445;SDS011;4761;49.490;10.908;2023-07-30T04:42:18;4.28;;;1.70;;
9445;SDS011;4761;49.490;10.908;2023-07-30T04:44:44;1.85;;;1.50;;
9445;SDS011;4761;49.490;10.908;2023-07-30T04:47:09;2.10;;;1.42;;
9445;SDS011;4761;49.490;10.908;2023-07-30T04:49:35;1.42;;;1.33;;
9445;SDS011;4761;49.490;10.908;2023-07-30T04:52:02;1.50;;;1.40;;
9445;SDS011;4761;49.490;10.908;2023-07-30T04:54:28;1.27;;;1.17;;
9445;SDS011;4761;49.490;10.908;2023-07-30T04:56:53;1.48;;;1.38;;
9445;SDS011;4761;49.490;10.908;2023-07-30T04:59:19;1.50;;;1.40;;
9445;SDS011;4761;49.490;10.908;2023-07-30T05:01:45;1.50;;;1.38;;
9445;SDS011;4761;49.490;10.908;2023-07-30T05:04:10;1.50;;;1.40;;
9445;SDS011;4761;49.490;10.908;2023-07-30T05:06:36;1.58;;;1.48;;
9445;SDS011;4761;49.490;10.908;2023-07-30T05:09:01;1.20;;;1.10;;
9445;SDS011;4761;49.490;10.908;2023-07-30T05:11:27;1.60;;;1.30;;
9445;SDS011;4761;49.490;10.908;2023-07-30T05:13:52;1.50;;;1.40;;
9445;SDS011;4761;49.490;10.908;2023-07-30T05:16:18;1.30;;;1.20;;
9445;SDS011;4761;49.490;10.908;2023-07-30T05:18:44;1.50;;;1.40;;
9445;SDS011;4761;49.490;10.908;2023-07-30T05:21:09;1.60;;;1.35;;
9445;SDS011;4761;49.490;10.908;2023-07-30T05:23:35;1.40;;;1.30;;
9445;SDS011;4761;49.490;10.908;2023-07-30T05:26:00;1.38;;;1.27;;
9445;SDS011;4761;49.490;10.908;2023-07-30T05:28:26;1.55;;;1.45;;
9445;SDS011;4761;49.490;10.908;2023-07-30T05:30:51;1.63;;;1.50;;
9445;SDS011;4761;49.490;10.908;2023-07-30T05:33:17;1.42;;;1.33;;
9445;SDS011;4761;49.490;10.908;2023-07-30T05:35:42;1.38;;;1.27;;
9445;SDS011;4761;49.490;10.908;2023-07-30T05:38:09;1.35;;;1.25;;
9445;SDS011;4761;49.490;10.908;2023-07-30T05:40:35;1.38;;;1.27;;
9445;SDS011;4761;49.490;10.908;2023-07-30T05:43:01;1.30;;;1.20;;
9445;SDS011;4761;49.490;10.908;2023-07-30T05:45:26;1.83;;;1.30;;
9445;SDS011;4761;49.490;10.908;2023-07-30T05:47:52;2.75;;;1.48;;
9445;SDS011;4761;49.490;10.908;2023-07-30T05:50:18;1.45;;;1.35;;
9445;SDS011;4761;49.490;10.908;2023-07-30T05:52:43;1.38;;;1.27;;
9445;SDS011;4761;49.490;10.908;2023-07-30T05:55:09;1.60;;;1.50;;
9445;SDS011;4761;49.490;10.908;2023-07-30T05:57:34;1.70;;;1.33;;
9445;SDS011;4761;49.490;10.908;2023-07-30T06:00:00;1.38;;;1.27;;
9445;SDS011;4761;49.490;10.908;2023-07-30T06:02:26;1.40;;;1.30;;
9445;SDS011;4761;49.490;10.908;2023-07-30T06:04:51;1.50;;;1.40;;
9445;SDS011;4761;49.490;10.908;2023-07-30T06:07:17;1.33;;;1.23;;
9445;SDS011;4761;49.490;10.908;2023-07-30T06:09:42;1.10;;;1.10;;
9445;SDS011;4761;49.490;10.908;2023-07-30T06:12:10;1.52;;;1.30;;
9445;SDS011;4761;49.490;10.908;2023-07-30T06:14:35;1.33;;;1.23;;
9445;SDS011;4761;49.490;10.908;2023-07-30T06:17:01;1.42;;;1.27;;
9445;SDS011;4761;49.490;10.908;2023-07-30T06:19:27;1.40;;;1.30;;
9445;SDS011;4761;49.490;10.908;2023-07-30T06:21:52;1.30;;;1.20;;
9445;SDS011;4761;49.490;10.908;2023-07-30T06:24:18;1.33;;;1.23;;
9445;SDS011;4761;49.490;10.908;2023-07-30T06:26:43;1.20;;;1.10;;
9445;SDS011;4761;49.490;10.908;2023-07-30T06:29:09;1.10;;;1.10;;
9445;SDS011;4761;49.490;10.908;2023-07-30T06:31:34;1.08;;;1.08;;
9445;SDS011;4761;49.490;10.908;2023-07-30T06:34:00;1.38;;;1.27;;
9445;SDS011;4761;49.490;10.908;2023-07-30T06:36:25;1.00;;;1.00;;
9445;SDS011;4761;49.490;10.908;2023-07-30T06:38:51;1.40;;;1.30;;
9445;SDS011;4761;49.490;10.908;2023-07-30T06:41:16;1.25;;;1.15;;
9445;SDS011;4761;49.490;10.908;2023-07-30T06:43:42;1.48;;;1.27;;
9445;SDS011;4761;49.490;10.908;2023-07-30T06:46:07;1.25;;;1.20;;
9445;SDS011;4761;49.490;10.908;2023-07-30T06:48:33;1.23;;;1.13;;
9445;SDS011;4761;49.490;10.908;2023-07-30T06:50:58;1.15;;;1.10;;
9445;SDS011;4761;49.490;10.908;2023-07-30T06:53:24;1.60;;;1.50;;
9445;SDS011;4761;49.490;10.908;2023-07-30T06:55:49;1.15;;;1.15;;
9445;SDS011;4761;49.490;10.908;2023-07-30T06:58:15;1.23;;;1.13;;
9445;SDS011;4761;49.490;10.908;2023-07-30T07:00:41;1.20;;;1.10;;
9445;SDS011;4761;49.490;10.908;2023-07-30T07:03:06;1.00;;;1.00;;
9445;SDS011;4761;49.490;10.908;2023-07-30T07:05:32;1.20;;;1.10;;
9445;SDS011;4761;49.490;10.908;2023-07-30T07:07:57;1.33;;;1.23;;
9445;SDS011;4761;49.490;10.908;2023-07-30T07:10:23;1.27;;;0.95;;
9445;SDS011;4761;49.490;10.908;2023-07-30T07:12:48;1.05;;;1.05;;
9445;SDS011;4761;49.490;10.908;2023-07-30T07:15:14;1.13;;;1.10;;
9445;SDS011;4761;49.490;10.908;2023-07-30T07:17:40;1.00;;;1.00;;
9445;SDS011;4761;49.490;10.908;2023-07-30T07:20:06;1.30;;;1.30;;
9445;SDS011;4761;49.490;10.908;2023-07-30T07:22:32;0.93;;;0.93;;
9445;SDS011;4761;49.490;10.908;2023-07-30T07:24:58;1.08;;;1.00;;
9445;SDS011;4761;49.490;10.908;2023-07-30T07:27:24;1.05;;;1.05;;
9445;SDS011;4761;49.490;10.908;2023-07-30T07:29:50;1.08;;;1.08;;
9445;SDS011;4761;49.490;10.908;2023-07-30T07:32:16;1.10;;;1.08;;
9445;SDS011;4761;49.490;10.908;2023-07-30T07:34:45;1.17;;;1.08;;
9445;SDS011;4761;49.490;10.908;2023-07-30T07:37:12;1.40;;;1.10;;
9445;SDS011;4761;49.490;10.908;2023-07-30T07:39:40;1.00;;;1.00;;
9445;SDS011;4761;49.490;10.908;2023-07-30T07:42:08;1.00;;;1.00;;
9445;SDS011;4761;49.490;10.908;2023-07-30T07:44:34;1.20;;;1.10;;
9445;SDS011;4761;49.490;10.908;2023-07-30T07:47:00;1.08;;;0.98;;
9445;SDS011;4761;49.490;10.908;2023-07-30T07:49:25;0.90;;;0.90;;
9445;SDS011;4761;49.490;10.908;2023-07-30T07:51:51;1.10;;;1.05;;
9445;SDS011;4761;49.490;10.908;2023-07-30T07:54:16;1.10;;;1.00;;
9445;SDS011;4761;49.490;10.908;2023-07-30T07:56:42;1.10;;;1.08;;
9445;SDS011;4761;49.490;10.908;2023-07-30T07:59:07;0.90;;;0.90;;
9445;SDS011;4761;49.490;10.908;2023-07-30T08:01:33;1.23;;;1.13;;
9445;SDS011;4761;49.490;10.908;2023-07-30T08:03:58;0.90;;;0.90;;
9445;SDS011;4761;49.490;10.908;2023-07-30T08:06:23;1.00;;;1.00;;
9445;SDS011;4761;49.490;10.908;2023-07-30T08:08:49;1.20;;;1.10;;
9445;SDS011;4761;49.490;10.908;2023-07-30T08:11:15;1.05;;;1.05;;
9445;SDS011;4761;49.490;10.908;2023-07-30T08:13:40;1.20;;;1.10;;
9445;SDS011;4761;49.490;10.908;2023-07-30T08:16:06;1.23;;;1.13;;
9445;SDS011;4761;49.490;10.908;2023-07-30T08:18:31;1.02;;;0.93;;
9445;SDS011;4761;49.490;10.908;2023-07-30T08:20:57;1.23;;;1.13;;
9445;SDS011;4761;49.490;10.908;2023-07-30T08:23:22;1.20;;;1.10;;
9445;SDS011;4761;49.490;10.908;2023-07-30T08:25:48;0.85;;;0.85;;
9445;SDS011;4761;49.490;10.908;2023-07-30T08:28:15;1.10;;;1.10;;
9445;SDS011;4761;49.490;10.908;2023-07-30T08:30:40;1.58;;;1.48;;
9445;SDS011;4761;49.490;10.908;2023-07-30T08:33:06;1.00;;;1.00;;
9445;SDS011;4761;49.490;10.908;2023-07-30T08:35:31;1.00;;;1.00;;
9445;SDS011;4761;49.490;10.908;2023-07-30T08:37:57;1.10;;;1.10;;
9445;SDS011;4761;49.490;10.908;2023-07-30T08:40:22;1.08;;;1.08;;
9445;SDS011;4761;49.490;10.908;2023-07-30T08:42:49;1.30;;;1.20;;
9445;SDS011;4761;49.490;10.908;2023-07-30T08:45:15;1.02;;;1.00;;
9445;SDS011;4761;49.490;10.908;2023-07-30T08:47:41;1.42;;;1.33;;
9445;SDS011;4761;49.490;10.908;2023-07-30T08:50:07;0.90;;;0.90;;
9445;SDS011;4761;49.490;10.908;2023-07-30T08:52:33;1.45;;;1.20;;
9445;SDS011;4761;49.490;10.908;2023-07-30T08:55:01;1.10;;;1.00;;
9445;SDS011;4761;49.490;10.908;2023-07-30T08:57:27;0.90;;;0.90;;
9445;SDS011;4761;49.490;10.908;2023-07-30T08:59:56;0.93;;;0.93;;
9445;SDS011;4761;49.490;10.908;2023-07-30T09:02:30;1.30;;;1.20;;
9445;SDS011;4761;49.490;10.908;2023-07-30T09:05:00;1.30;;;1.20;;
9445;SDS011;4761;49.490;10.908;2023-07-30T09:07:26;1.08;;;0.98;;
9445;SDS011;4761;49.490;10.908;2023-07-30T09:09:52;1.05;;;1.05;;
9445;SDS011;4761;49.490;10.908;2023-07-30T09:12:17;0.90;;;0.90;;
9445;SDS011;4761;49.490;10.908;2023-07-30T09:14:43;1.70;;;1.00;;
9445;SDS011;4761;49.490;10.908;2023-07-30T09:17:10;1.20;;;1.17;;
9445;SDS011;4761;49.490;10.908;2023-07-30T09:19:36;1.20;;;1.10;;
9445;SDS011;4761;49.490;10.908;2023-07-30T09:22:05;1.15;;;1.08;;
9445;SDS011;4761;49.490;10.908;2023-07-30T09:24:31;1.05;;;0.95;;
9445;SDS011;4761;49.490;10.908;2023-07-30T09:26:57;0.90;;;0.90;;
9445;SDS011;4761;49.490;10.908;2023-07-30T09:29:27;1.00;;;0.98;;
9445;SDS011;4761;49.490;10.908;2023-07-30T09:31:53;1.17;;;1.08;;
9445;SDS011;4761;49.490;10.908;2023-07-30T09:34:19;1.30;;;1.20;;
9445;SDS011;4761;49.490;10.908;2023-07-30T09:36:46;0.90;;;0.90;;
9445;SDS011;4761;49.490;10.908;2023-07-30T09:39:17;1.08;;;1.08;;
9445;SDS011;4761;49.490;10.908;2023-07-30T09:41:47;1.35;;;1.17;;
9445;SDS011;4761;49.490;10.908;2023-07-30T09:44:15;0.85;;;0.85;;
9445;SDS011;4761;49.490;10.908;2023-07-30T09:46:42;1.10;;;1.00;;
9445;SDS011;4761;49.490;10.908;2023-07-30T09:49:09;0.90;;;0.90;;
9445;SDS011;4761;49.490;10.908;2023-07-30T09:51:35;0.90;;;0.90;;
9445;SDS011;4761;49.490;10.908;2023-07-30T09:54:03;0.80;;;0.80;;
9445;SDS011;4761;49.490;10.908;2023-07-30T09:56:30;1.15;;;1.05;;
9445;SDS011;4761;49.490;10.908;2023-07-30T09:58:56;0.90;;;0.90;;
9445;SDS011;4761;49.490;10.908;2023-07-30T10:01:21;1.05;;;1.00;;
9445;SDS011;4761;49.490;10.908;2023-07-30T10:03:50;1.00;;;1.00;;
9445;SDS011;4761;49.490;10.908;2023-07-30T10:06:17;1.17;;;1.10;;
9445;SDS011;4761;49.490;10.908;2023-07-30T10:08:43;0.90;;;0.90;;
9445;SDS011;4761;49.490;10.908;2023-07-30T10:11:10;0.75;;;0.75;;
9445;SDS011;4761;49.490;10.908;2023-07-30T10:13:38;0.80;;;0.80;;
9445;SDS011;4761;49.490;10.908;2023-07-30T10:16:12;0.90;;;0.88;;
9445;SDS011;4761;49.490;10.908;2023-07-30T10:18:41;1.25;;;1.00;;
9445;SDS011;4761;49.490;10.908;2023-07-30T10:21:08;1.05;;;1.05;;
9445;SDS011;4761;49.490;10.908;2023-07-30T10:23:34;0.70;;;0.70;;
9445;SDS011;4761;49.490;10.908;2023-07-30T10:26:08;1.10;;;0.90;;
9445;SDS011;4761;49.490;10.908;2023-07-30T10:28:35;0.82;;;0.82;;
9445;SDS011;4761;49.490;10.908;2023-07-30T10:31:07;0.98;;;0.98;;
9445;SDS011;4761;49.490;10.908;2023-07-30T10:36:11;0.82;;;0.82;;
9445;SDS011;4761;49.490;10.908;2023-07-30T10:38:36;1.00;;;1.00;;
9445;SDS011;4761;49.490;10.908;2023-07-30T10:43:50;0.95;;;0.90;;
9445;SDS011;4761;49.490;10.908;2023-07-30T10:46:19;0.73;;;0.73;;
9445;SDS011;4761;49.490;10.908;2023-07-30T10:48:45;1.05;;;1.00;;
9445;SDS011;4761;49.490;10.908;2023-07-30T10:51:13;1.17;;;1.08;;
9445;SDS011;4761;49.490;10.908;2023-07-30T10:53:47;0.80;;;0.80;;
9445;SDS011;4761;49.490;10.908;2023-07-30T10:56:16;1.00;;;0.90;;
9445;SDS011;4761;49.490;10.908;2023-07-30T10:58:43;0.90;;;0.90;;
9445;SDS011;4761;49.490;10.908;2023-07-30T11:01:15;0.85;;;0.75;;
9445;SDS011;4761;49.490;10.908;2023-07-30T11:03:41;1.00;;;1.00;;
9445;SDS011;4761;49.490;10.908;2023-07-30T11:06:06;1.00;;;0.90;;
9445;SDS011;4761;49.490;10.908;2023-07-30T11:11:03;1.05;;;0.98;;
9445;SDS011;4761;49.490;10.908;2023-07-30T11:13:29;0.90;;;0.90;;
9445;SDS011;4761;49.490;10.908;2023-07-30T11:16:00;1.05;;;0.95;;
9445;SDS011;4761;49.490;10.908;2023-07-30T11:18:26;0.93;;;0.90;;
9445;SDS011;4761;49.490;10.908;2023-07-30T11:21:10;1.10;;;1.05;;
9445;SDS011;4761;49.490;10.908;2023-07-30T11:23:38;0.90;;;0.90;;
9445;SDS011;4761;49.490;10.908;2023-07-30T11:26:05;0.98;;;0.90;;
9445;SDS011;4761;49.490;10.908;2023-07-30T11:31:02;0.93;;;0.93;;
9445;SDS011;4761;49.490;10.908;2023-07-30T11:33:42;0.90;;;0.90;;
9445;SDS011;4761;49.490;10.908;2023-07-30T11:36:12;0.90;;;0.90;;
9445;SDS011;4761;49.490;10.908;2023-07-30T11:38:44;0.90;;;0.88;;
9445;SDS011;4761;49.490;10.908;2023-07-30T11:41:10;0.80;;;0.80;;
9445;SDS011;4761;49.490;10.908;2023-07-30T11:43:37;0.73;;;0.73;;
9445;SDS011;4761;49.490;10.908;2023-07-30T11:46:08;1.30;;;1.20;;
9445;SDS011;4761;49.490;10.908;2023-07-30T11:48:35;0.70;;;0.70;;
9445;SDS011;4761;49.490;10.908;2023-07-30T11:51:01;1.10;;;1.10;;
9445;SDS011;4761;49.490;10.908;2023-07-30T11:56:30;0.70;;;0.70;;
9445;SDS011;4761;49.490;10.908;2023-07-30T11:58:58;0.90;;;0.90;;
9445;SDS011;4761;49.490;10.908;2023-07-30T12:01:27;0.90;;;0.90;;
9445;SDS011;4761;49.490;10.908;2023-07-30T12:03:59;0.80;;;0.80;;
9445;SDS011;4761;49.490;10.908;2023-07-30T12:06:38;0.93;;;0.93;;
9445;SDS011;4761;49.490;10.908;2023-07-30T12:09:21;0.90;;;0.90;;
9445;SDS011;4761;49.490;10.908;2023-07-30T12:14:42;0.80;;;0.80;;
9445;SDS011;4761;49.490;10.908;2023-07-30T12:17:14;0.73;;;0.73;;
9445;SDS011;4761;49.490;10.908;2023-07-30T12:19:39;0.73;;;0.73;;
9445;SDS011;4761;49.490;10.908;2023-07-30T12:22:06;0.80;;;0.80;;
9445;SDS011;4761;49.490;10.908;2023-07-30T12:24:31;0.90;;;0.90;;
9445;SDS011;4761;49.490;10.908;2023-07-30T12:26:57;0.75;;;0.75;;
9445;SDS011;4761;49.490;10.908;2023-07-30T12:29:22;0.77;;;0.77;;
9445;SDS011;4761;49.490;10.908;2023-07-30T12:31:49;0.70;;;0.70;;
9445;SDS011;4761;49.490;10.908;2023-07-30T12:34:18;0.73;;;0.73;;
9445;SDS011;4761;49.490;10.908;2023-07-30T12:36:44;0.70;;;0.70;;
9445;SDS011;4761;49.490;10.908;2023-07-30T12:39:10;0.73;;;0.70;;
9445;SDS011;4761;49.490;10.908;2023-07-30T12:41:35;0.80;;;0.80;;
9445;SDS011;4761;49.490;10.908;2023-07-30T12:44:01;0.80;;;0.80;;
9445;SDS011;4761;49.490;10.908;2023-07-30T12:46:28;0.75;;;0.75;;
9445;SDS011;4761;49.490;10.908;2023-07-30T12:48:55;0.90;;;0.90;;
9445;SDS011;4761;49.490;10.908;2023-07-30T12:51:21;0.80;;;0.80;;
9445;SDS011;4761;49.490;10.908;2023-07-30T12:53:47;1.95;;;0.80;;
9445;SDS011;4761;49.490;10.908;2023-07-30T12:56:12;0.73;;;0.73;;
9445;SDS011;4761;49.490;10.908;2023-07-30T12:58:40;0.98;;;0.80;;
9445;SDS011;4761;49.490;10.908;2023-07-30T13:01:05;1.13;;;1.02;;
9445;SDS011;4761;49.490;10.908;2023-07-30T13:03:31;0.80;;;0.80;;
9445;SDS011;4761;49.490;10.908;2023-07-30T13:05:56;0.80;;;0.80;;
9445;SDS011;4761;49.490;10.908;2023-07-30T13:08:22;0.75;;;0.75;;
9445;SDS011;4761;49.490;10.908;2023-07-30T13:10:48;0.70;;;0.70;;
9445;SDS011;4761;49.490;10.908;2023-07-30T13:13:13;0.77;;;0.77;;
9445;SDS011;4761;49.490;10.908;2023-07-30T13:15:39;0.80;;;0.80;;
9445;SDS011;4761;49.490;10.908;2023-07-30T13:18:04;0.70;;;0.70;;
9445;SDS011;4761;49.490;10.908;2023-07-30T13:20:30;0.77;;;0.77;;
9445;SDS011;4761;49.490;10.908;2023-07-30T13:22:56;0.85;;;0.85;;
9445;SDS011;4761;49.490;10.908;2023-07-30T13:25:21;0.90;;;0.90;;
9445;SDS011;4761;49.490;10.908;2023-07-30T13:27:47;0.90;;;0.90;;
9445;SDS011;4761;49.490;10.908;2023-07-30T13:30:13;0.70;;;0.70;;
9445;SDS011;4761;49.490;10.908;2023-07-30T13:32:40;0.90;;;0.90;;
9445;SDS011;4761;49.490;10.908;2023-07-30T13:35:05;0.80;;;0.80;;
9445;SDS011;4761;49.490;10.908;2023-07-30T13:37:31;0.70;;;0.70;;
9445;SDS011;4761;49.490;10.908;2023-07-30T13:39:57;0.80;;;0.80;;
9445;SDS011;4761;49.490;10.908;2023-07-30T13:42:22;0.70;;;0.70;;
9445;SDS011;4761;49.490;10.908;2023-07-30T13:44:48;0.70;;;0.70;;
9445;SDS011;4761;49.490;10.908;2023-07-30T13:47:13;0.85;;;0.85;;
9445;SDS011;4761;49.490;10.908;2023-07-30T13:49:39;0.80;;;0.80;;
9445;SDS011;4761;49.490;10.908;2023-07-30T13:52:04;0.68;;;0.68;;
9445;SDS011;4761;49.490;10.908;2023-07-30T13:54:30;0.60;;;0.60;;
9445;SDS011;4761;49.490;10.908;2023-07-30T13:56:56;0.90;;;0.90;;
9445;SDS011;4761;49.490;10.908;2023-07-30T13:59:21;0.70;;;0.70;;
9445;SDS011;4761;49.490;10.908;2023-07-30T14:01:47;0.85;;;0.85;;
9445;SDS011;4761;49.490;10.908;2023-07-30T14:04:12;0.80;;;0.80;;
9445;SDS011;4761;49.490;10.908;2023-07-30T14:06:38;0.75;;;0.70;;
9445;SDS011;4761;49.490;10.908;2023-07-30T14:09:03;0.70;;;0.70;;
9445;SDS011;4761;49.490;10.908;2023-07-30T14:11:29;0.80;;;0.80;;
9445;SDS011;4761;49.490;10.908;2023-07-30T14:13:55;0.70;;;0.70;;
9445;SDS011;4761;49.490;10.908;2023-07-30T14:16:21;0.70;;;0.70;;
9445;SDS011;4761;49.490;10.908;2023-07-30T14:18:46;0.60;;;0.60;;
9445;SDS011;4761;49.490;10.908;2023-07-30T14:21:12;0.70;;;0.70;;
9445;SDS011;4761;49.490;10.908;2023-07-30T14:23:38;0.80;;;0.80;;
9445;SDS011;4761;49.490;10.908;2023-07-30T14:26:04;0.93;;;0.93;;
9445;SDS011;4761;49.490;10.908;2023-07-30T14:28:30;0.88;;;0.88;;
9445;SDS011;4761;49.490;10.908;2023-07-30T14:30:55;0.88;;;0.82;;
9445;SDS011;4761;49.490;10.908;2023-07-30T14:33:21;0.70;;;0.70;;
9445;SDS011;4761;49.490;10.908;2023-07-30T14:35:46;0.88;;;0.88;;
9445;SDS011;4761;49.490;10.908;2023-07-30T14:38:12;0.77;;;0.77;;
9445;SDS011;4761;49.490;10.908;2023-07-30T14:40:38;0.80;;;0.80;;
9445;SDS011;4761;49.490;10.908;2023-07-30T14:43:03;0.80;;;0.80;;
9445;SDS011;4761;49.490;10.908;2023-07-30T14:45:29;0.70;;;0.70;;
9445;SDS011;4761;49.490;10.908;2023-07-30T14:47:54;0.70;;;0.70;;
9445;SDS011;4761;49.490;10.908;2023-07-30T14:50:20;0.70;;;0.70;;
9445;SDS011;4761;49.490;10.908;2023-07-30T14:52:45;0.80;;;0.80;;
9445;SDS011;4761;49.490;10.908;2023-07-30T14:55:11;0.70;;;0.70;;
9445;SDS011;4761;49.490;10.908;2023-07-30T14:57:36;0.85;;;0.85;;
9445;SDS011;4761;49.490;10.908;2023-07-30T15:00:02;0.77;;;0.77;;
9445;SDS011;4761;49.490;10.908;2023-07-30T15:02:28;0.65;;;0.65;;
9445;SDS011;4761;49.490;10.908;2023-07-30T15:04:54;0.68;;;0.68;;
9445;SDS011;4761;49.490;10.908;2023-07-30T15:07:20;0.50;;;0.50;;
9445;SDS011;4761;49.490;10.908;2023-07-30T15:09:50;0.60;;;0.60;;